Lafayette, California
Current Conditions -  °F | °C
As of 12:53 AM on Monday 20 Oct 2014 (Local Time) from KCCR Reporting Station
Overcast Overcast  
Wind Chill: 63°   Ceiling: 1700
Heat Index: 63°   Visibility: 10mi
Dew Point: 57°   Wind: 7mph
Humidity: 81%   Direction: 250°WSW
Pressure: 29.91"   Gusts: NA
Location:  37.89°N, 122.12°W
Report Text: KCCR 200753Z 25006KT 10SM OVC017 17/14 A2991 RMK AO2 SLP113 T01720139 402670128
Loading
Personal Weather Stations






























Interactive Weather Map
Tropical Storm Tracking
New forecast layout! Learn more

10-Day Weather Forecast

Advertisements
Track Severe Weather on mobile